NCAR-RAP Real-Time Weather Data

Output produced by METARs form (14 October 2019  23:02 UTC)
found at http://weather.rap.ucar.edu/surface/
 
RJCB 142240Z 33019KT 9999 FEW025 08/01 Q1020 RMK 1CU025 A3014
 
RJCC 142230Z 34008KT 9999 FEW030 BKN050 08/03 Q1022 RMK 1CU030 7CU050 A3020
 
RJCH 142200Z VRB02KT 9999 FEW040 08/01 Q1023
 
RJCK 142200Z 33009KT 9999 FEW030 07/03 Q1019
 
RJCM 142245Z 30006KT 260V350 9999 FEW020 07/M00 Q1020 RMK 1CU020 A3015
 
 
RJEC 142200Z VRB01KT 9999 FEW001 05/04 Q1021
 
RJSA 142200Z VRB02KT 9999 FEW010 SCT030 BKN050 09/05 Q1023
 
RJSC 142240Z 35016KT 9999 FEW005 SCT030 BKN040 12/09 Q1023 RMK 1ST005 3CU030 6CU040 A3021
 
RJSF 142200Z 36010KT 9999 FEW020 SCT070 14/12 Q1021
 
RJSI 142240Z 01012KT 9999 FEW005 SCT030 BKN050 13/09 Q1022 RMK 1ST005 3CU030 5CU050 A3019
 
RJSK 142200Z 32007KT 9999 FEW010 SCT030 12/08 Q1023
 
RJSM 142200Z VRB02KT 9999 FEW005 SCT030 10/09 Q1022
 
RJSN 142200Z 35020KT 9999 FEW015 SCT020 BKN030 16/11 Q1023
 
 
RJSS 142200Z 35005KT 9999 FEW030 BKN050 16/11 Q1021
 
RJSY 142200Z 34010G20KT 290V020 9999 FEW020 BKN030 14/07 Q1023